sensor_id;sensor_type;location;lat;lon;timestamp;P1;durP1;ratioP1;P2;durP2;ratioP2
4547;SDS011;2286;51.570;7.090;2023-10-13T00:01:45;0.40;;;0.30;;
4547;SDS011;2286;51.570;7.090;2023-10-13T00:04:14;0.43;;;0.40;;
4547;SDS011;2286;51.570;7.090;2023-10-13T00:06:41;0.40;;;0.40;;
4547;SDS011;2286;51.570;7.090;2023-10-13T00:09:10;0.40;;;0.30;;
4547;SDS011;2286;51.570;7.090;2023-10-13T00:11:41;0.50;;;0.50;;
4547;SDS011;2286;51.570;7.090;2023-10-13T00:14:10;0.40;;;0.30;;
4547;SDS011;2286;51.570;7.090;2023-10-13T00:16:39;0.40;;;0.40;;
4547;SDS011;2286;51.570;7.090;2023-10-13T00:19:06;0.40;;;0.30;;
4547;SDS011;2286;51.570;7.090;2023-10-13T00:21:39;0.40;;;0.30;;
4547;SDS011;2286;51.570;7.090;2023-10-13T00:24:07;1.33;;;1.33;;
4547;SDS011;2286;51.570;7.090;2023-10-13T00:26:38;0.40;;;0.30;;
4547;SDS011;2286;51.570;7.090;2023-10-13T00:29:08;0.40;;;0.30;;
4547;SDS011;2286;51.570;7.090;2023-10-13T00:31:41;0.40;;;0.30;;
4547;SDS011;2286;51.570;7.090;2023-10-13T00:34:08;0.50;;;0.47;;
4547;SDS011;2286;51.570;7.090;2023-10-13T00:36:37;0.63;;;0.63;;
4547;SDS011;2286;51.570;7.090;2023-10-13T00:39:13;0.40;;;0.30;;
4547;SDS011;2286;51.570;7.090;2023-10-13T00:41:41;0.40;;;0.30;;
4547;SDS011;2286;51.570;7.090;2023-10-13T00:44:18;0.40;;;0.40;;
4547;SDS011;2286;51.570;7.090;2023-10-13T00:46:51;0.40;;;0.30;;
4547;SDS011;2286;51.570;7.090;2023-10-13T00:49:21;0.40;;;0.30;;
4547;SDS011;2286;51.570;7.090;2023-10-13T00:51:47;2.23;;;2.10;;
4547;SDS011;2286;51.570;7.090;2023-10-13T00:54:16;0.93;;;0.93;;
4547;SDS011;2286;51.570;7.090;2023-10-13T00:56:43;0.40;;;0.40;;
4547;SDS011;2286;51.570;7.090;2023-10-13T00:59:18;0.40;;;0.30;;
4547;SDS011;2286;51.570;7.090;2023-10-13T01:01:48;0.40;;;0.30;;
4547;SDS011;2286;51.570;7.090;2023-10-13T01:04:19;0.40;;;0.30;;
4547;SDS011;2286;51.570;7.090;2023-10-13T01:06:45;0.40;;;0.30;;
4547;SDS011;2286;51.570;7.090;2023-10-13T01:09:12;0.40;;;0.30;;
4547;SDS011;2286;51.570;7.090;2023-10-13T01:11:40;0.40;;;0.30;;
4547;SDS011;2286;51.570;7.090;2023-10-13T01:14:09;0.40;;;0.30;;
4547;SDS011;2286;51.570;7.090;2023-10-13T01:16:36;0.40;;;0.30;;
4547;SDS011;2286;51.570;7.090;2023-10-13T01:19:04;0.40;;;0.30;;
4547;SDS011;2286;51.570;7.090;2023-10-13T01:21:31;0.40;;;0.30;;
4547;SDS011;2286;51.570;7.090;2023-10-13T01:24:00;0.40;;;0.30;;
4547;SDS011;2286;51.570;7.090;2023-10-13T01:26:27;0.40;;;0.30;;
4547;SDS011;2286;51.570;7.090;2023-10-13T01:28:56;0.40;;;0.30;;
4547;SDS011;2286;51.570;7.090;2023-10-13T01:31:23;0.40;;;0.30;;
4547;SDS011;2286;51.570;7.090;2023-10-13T01:33:54;0.40;;;0.40;;
4547;SDS011;2286;51.570;7.090;2023-10-13T01:36:23;2.30;;;2.00;;
4547;SDS011;2286;51.570;7.090;2023-10-13T01:38:51;0.50;;;0.50;;
4547;SDS011;2286;51.570;7.090;2023-10-13T01:41:20;0.40;;;0.30;;
4547;SDS011;2286;51.570;7.090;2023-10-13T01:43:47;0.40;;;0.30;;
4547;SDS011;2286;51.570;7.090;2023-10-13T01:46:13;0.40;;;0.40;;
4547;SDS011;2286;51.570;7.090;2023-10-13T01:48:44;0.40;;;0.30;;
4547;SDS011;2286;51.570;7.090;2023-10-13T01:51:11;0.40;;;0.30;;
4547;SDS011;2286;51.570;7.090;2023-10-13T01:53:38;0.40;;;0.30;;
4547;SDS011;2286;51.570;7.090;2023-10-13T01:56:04;0.40;;;0.30;;
4547;SDS011;2286;51.570;7.090;2023-10-13T01:58:36;0.40;;;0.30;;
4547;SDS011;2286;51.570;7.090;2023-10-13T02:01:06;0.40;;;0.30;;
4547;SDS011;2286;51.570;7.090;2023-10-13T02:03:34;0.50;;;0.40;;
4547;SDS011;2286;51.570;7.090;2023-10-13T02:06:01;0.50;;;0.40;;
4547;SDS011;2286;51.570;7.090;2023-10-13T02:08:31;0.50;;;0.50;;
4547;SDS011;2286;51.570;7.090;2023-10-13T02:10:58;0.50;;;0.40;;
4547;SDS011;2286;51.570;7.090;2023-10-13T02:13:27;1.40;;;0.70;;
4547;SDS011;2286;51.570;7.090;2023-10-13T02:15:56;1.00;;;1.00;;
4547;SDS011;2286;51.570;7.090;2023-10-13T02:18:28;0.75;;;0.75;;
4547;SDS011;2286;51.570;7.090;2023-10-13T02:21:02;0.50;;;0.40;;
4547;SDS011;2286;51.570;7.090;2023-10-13T02:23:30;1.90;;;0.90;;
4547;SDS011;2286;51.570;7.090;2023-10-13T02:25:56;0.90;;;0.90;;
4547;SDS011;2286;51.570;7.090;2023-10-13T02:28:35;1.80;;;0.80;;
4547;SDS011;2286;51.570;7.090;2023-10-13T02:31:03;0.50;;;0.50;;
4547;SDS011;2286;51.570;7.090;2023-10-13T02:33:31;0.50;;;0.40;;
4547;SDS011;2286;51.570;7.090;2023-10-13T02:35:58;0.90;;;0.90;;
4547;SDS011;2286;51.570;7.090;2023-10-13T02:38:29;0.52;;;0.52;;
4547;SDS011;2286;51.570;7.090;2023-10-13T02:40:59;0.50;;;0.45;;
4547;SDS011;2286;51.570;7.090;2023-10-13T02:43:32;0.50;;;0.50;;
4547;SDS011;2286;51.570;7.090;2023-10-13T02:45:58;0.50;;;0.40;;
4547;SDS011;2286;51.570;7.090;2023-10-13T02:48:27;5.80;;;1.50;;
4547;SDS011;2286;51.570;7.090;2023-10-13T02:50:57;0.50;;;0.43;;
4547;SDS011;2286;51.570;7.090;2023-10-13T02:53:30;0.80;;;0.80;;
4547;SDS011;2286;51.570;7.090;2023-10-13T02:55:56;0.50;;;0.40;;
4547;SDS011;2286;51.570;7.090;2023-10-13T02:58:31;0.93;;;0.93;;
4547;SDS011;2286;51.570;7.090;2023-10-13T03:01:05;1.20;;;0.80;;
4547;SDS011;2286;51.570;7.090;2023-10-13T03:03:47;0.70;;;0.70;;
4547;SDS011;2286;51.570;7.090;2023-10-13T03:06:16;0.50;;;0.40;;
4547;SDS011;2286;51.570;7.090;2023-10-13T03:08:47;0.80;;;0.80;;
4547;SDS011;2286;51.570;7.090;2023-10-13T03:11:13;0.80;;;0.80;;
4547;SDS011;2286;51.570;7.090;2023-10-13T03:13:46;0.50;;;0.50;;
4547;SDS011;2286;51.570;7.090;2023-10-13T03:16:13;0.50;;;0.40;;
4547;SDS011;2286;51.570;7.090;2023-10-13T03:18:43;0.50;;;0.40;;
4547;SDS011;2286;51.570;7.090;2023-10-13T03:21:20;0.50;;;0.40;;
4547;SDS011;2286;51.570;7.090;2023-10-13T03:23:57;0.50;;;0.40;;
4547;SDS011;2286;51.570;7.090;2023-10-13T03:26:30;0.50;;;0.40;;
4547;SDS011;2286;51.570;7.090;2023-10-13T03:29:01;0.50;;;0.40;;
4547;SDS011;2286;51.570;7.090;2023-10-13T03:31:29;3.20;;;1.00;;
4547;SDS011;2286;51.570;7.090;2023-10-13T03:34:02;0.50;;;0.40;;
4547;SDS011;2286;51.570;7.090;2023-10-13T03:36:32;1.00;;;0.70;;
4547;SDS011;2286;51.570;7.090;2023-10-13T03:39:16;0.50;;;0.40;;
4547;SDS011;2286;51.570;7.090;2023-10-13T03:41:43;1.20;;;1.10;;
4547;SDS011;2286;51.570;7.090;2023-10-13T03:44:10;0.60;;;0.60;;
4547;SDS011;2286;51.570;7.090;2023-10-13T03:46:43;0.40;;;0.30;;
4547;SDS011;2286;51.570;7.090;2023-10-13T03:49:13;0.40;;;0.30;;
4547;SDS011;2286;51.570;7.090;2023-10-13T03:51:47;0.40;;;0.30;;
4547;SDS011;2286;51.570;7.090;2023-10-13T03:54:16;0.40;;;0.30;;
4547;SDS011;2286;51.570;7.090;2023-10-13T03:56:43;0.40;;;0.30;;
4547;SDS011;2286;51.570;7.090;2023-10-13T03:59:11;0.40;;;0.30;;
4547;SDS011;2286;51.570;7.090;2023-10-13T04:01:44;0.50;;;0.50;;
4547;SDS011;2286;51.570;7.090;2023-10-13T04:04:12;0.40;;;0.30;;
4547;SDS011;2286;51.570;7.090;2023-10-13T04:06:41;0.40;;;0.30;;
4547;SDS011;2286;51.570;7.090;2023-10-13T04:09:19;0.90;;;0.83;;
4547;SDS011;2286;51.570;7.090;2023-10-13T04:12:05;0.40;;;0.40;;
4547;SDS011;2286;51.570;7.090;2023-10-13T04:15:06;1.90;;;1.90;;
4547;SDS011;2286;51.570;7.090;2023-10-13T04:17:48;0.57;;;0.57;;
4547;SDS011;2286;51.570;7.090;2023-10-13T04:20:16;0.50;;;0.30;;
4547;SDS011;2286;51.570;7.090;2023-10-13T04:22:58;0.40;;;0.30;;
4547;SDS011;2286;51.570;7.090;2023-10-13T04:25:44;0.90;;;0.90;;
4547;SDS011;2286;51.570;7.090;2023-10-13T04:28:28;0.40;;;0.30;;
4547;SDS011;2286;51.570;7.090;2023-10-13T04:31:02;0.50;;;0.50;;
4547;SDS011;2286;51.570;7.090;2023-10-13T04:33:39;0.40;;;0.30;;
4547;SDS011;2286;51.570;7.090;2023-10-13T04:36:18;1.10;;;1.10;;
4547;SDS011;2286;51.570;7.090;2023-10-13T04:39:01;0.40;;;0.30;;
4547;SDS011;2286;51.570;7.090;2023-10-13T04:41:41;0.50;;;0.40;;
4547;SDS011;2286;51.570;7.090;2023-10-13T04:44:07;0.40;;;0.40;;
4547;SDS011;2286;51.570;7.090;2023-10-13T04:47:03;0.40;;;0.30;;
4547;SDS011;2286;51.570;7.090;2023-10-13T04:49:46;0.40;;;0.30;;
4547;SDS011;2286;51.570;7.090;2023-10-13T04:52:20;0.40;;;0.30;;
4547;SDS011;2286;51.570;7.090;2023-10-13T04:55:16;0.40;;;0.30;;
4547;SDS011;2286;51.570;7.090;2023-10-13T04:57:57;0.40;;;0.30;;
4547;SDS011;2286;51.570;7.090;2023-10-13T05:00:35;0.40;;;0.40;;
4547;SDS011;2286;51.570;7.090;2023-10-13T05:03:43;0.40;;;0.30;;
4547;SDS011;2286;51.570;7.090;2023-10-13T05:06:33;0.40;;;0.30;;
4547;SDS011;2286;51.570;7.090;2023-10-13T05:09:20;0.40;;;0.30;;
4547;SDS011;2286;51.570;7.090;2023-10-13T05:12:04;0.40;;;0.40;;
4547;SDS011;2286;51.570;7.090;2023-10-13T05:14:49;0.40;;;0.30;;
4547;SDS011;2286;51.570;7.090;2023-10-13T05:17:33;0.40;;;0.37;;
4547;SDS011;2286;51.570;7.090;2023-10-13T05:20:19;0.40;;;0.40;;
4547;SDS011;2286;51.570;7.090;2023-10-13T05:23:11;0.40;;;0.30;;
4547;SDS011;2286;51.570;7.090;2023-10-13T05:25:56;0.40;;;0.30;;
4547;SDS011;2286;51.570;7.090;2023-10-13T05:28:43;0.50;;;0.40;;
4547;SDS011;2286;51.570;7.090;2023-10-13T05:31:27;0.40;;;0.30;;
4547;SDS011;2286;51.570;7.090;2023-10-13T05:34:11;0.40;;;0.30;;
4547;SDS011;2286;51.570;7.090;2023-10-13T05:36:57;0.40;;;0.30;;
4547;SDS011;2286;51.570;7.090;2023-10-13T05:39:41;0.60;;;0.60;;
4547;SDS011;2286;51.570;7.090;2023-10-13T05:42:25;0.40;;;0.30;;
4547;SDS011;2286;51.570;7.090;2023-10-13T05:45:12;0.40;;;0.30;;
4547;SDS011;2286;51.570;7.090;2023-10-13T05:48:19;0.77;;;0.77;;
4547;SDS011;2286;51.570;7.090;2023-10-13T05:51:00;0.40;;;0.30;;
4547;SDS011;2286;51.570;7.090;2023-10-13T05:53:42;0.40;;;0.30;;
4547;SDS011;2286;51.570;7.090;2023-10-13T05:56:26;0.40;;;0.30;;
4547;SDS011;2286;51.570;7.090;2023-10-13T05:59:10;0.50;;;0.50;;
4547;SDS011;2286;51.570;7.090;2023-10-13T06:01:55;0.70;;;0.70;;
4547;SDS011;2286;51.570;7.090;2023-10-13T06:04:47;0.50;;;0.40;;
4547;SDS011;2286;51.570;7.090;2023-10-13T06:07:32;0.40;;;0.30;;
4547;SDS011;2286;51.570;7.090;2023-10-13T06:10:18;0.50;;;0.40;;
4547;SDS011;2286;51.570;7.090;2023-10-13T06:13:03;0.68;;;0.47;;
4547;SDS011;2286;51.570;7.090;2023-10-13T06:15:47;0.40;;;0.30;;
4547;SDS011;2286;51.570;7.090;2023-10-13T06:18:31;0.40;;;0.30;;
4547;SDS011;2286;51.570;7.090;2023-10-13T06:21:16;0.40;;;0.40;;
4547;SDS011;2286;51.570;7.090;2023-10-13T06:24:00;0.40;;;0.30;;
4547;SDS011;2286;51.570;7.090;2023-10-13T06:26:48;0.40;;;0.30;;
4547;SDS011;2286;51.570;7.090;2023-10-13T06:29:32;0.40;;;0.30;;
4547;SDS011;2286;51.570;7.090;2023-10-13T06:31:59;0.40;;;0.40;;
4547;SDS011;2286;51.570;7.090;2023-10-13T06:34:26;0.40;;;0.30;;
4547;SDS011;2286;51.570;7.090;2023-10-13T06:37:03;1.10;;;1.10;;
4547;SDS011;2286;51.570;7.090;2023-10-13T06:39:47;0.40;;;0.30;;
4547;SDS011;2286;51.570;7.090;2023-10-13T06:42:15;0.40;;;0.30;;
4547;SDS011;2286;51.570;7.090;2023-10-13T06:44:44;0.40;;;0.30;;
4547;SDS011;2286;51.570;7.090;2023-10-13T06:47:11;0.40;;;0.30;;
4547;SDS011;2286;51.570;7.090;2023-10-13T06:49:39;0.40;;;0.30;;
4547;SDS011;2286;51.570;7.090;2023-10-13T06:52:08;0.40;;;0.30;;
4547;SDS011;2286;51.570;7.090;2023-10-13T06:54:36;0.40;;;0.30;;
4547;SDS011;2286;51.570;7.090;2023-10-13T06:57:04;0.40;;;0.30;;
4547;SDS011;2286;51.570;7.090;2023-10-13T06:59:40;0.40;;;0.37;;
4547;SDS011;2286;51.570;7.090;2023-10-13T07:02:07;0.40;;;0.30;;
4547;SDS011;2286;51.570;7.090;2023-10-13T07:04:40;0.40;;;0.30;;
4547;SDS011;2286;51.570;7.090;2023-10-13T07:07:07;0.40;;;0.30;;
4547;SDS011;2286;51.570;7.090;2023-10-13T07:09:35;0.40;;;0.40;;
4547;SDS011;2286;51.570;7.090;2023-10-13T07:12:14;0.40;;;0.30;;
4547;SDS011;2286;51.570;7.090;2023-10-13T07:14:47;0.70;;;0.70;;
4547;SDS011;2286;51.570;7.090;2023-10-13T07:17:18;0.70;;;0.70;;
4547;SDS011;2286;51.570;7.090;2023-10-13T07:19:50;0.40;;;0.30;;
4547;SDS011;2286;51.570;7.090;2023-10-13T07:22:21;0.40;;;0.30;;
4547;SDS011;2286;51.570;7.090;2023-10-13T07:24:49;0.50;;;0.50;;
4547;SDS011;2286;51.570;7.090;2023-10-13T07:27:17;0.40;;;0.30;;
4547;SDS011;2286;51.570;7.090;2023-10-13T07:29:51;0.40;;;0.30;;
4547;SDS011;2286;51.570;7.090;2023-10-13T07:32:30;0.40;;;0.30;;
4547;SDS011;2286;51.570;7.090;2023-10-13T07:34:59;0.40;;;0.30;;
4547;SDS011;2286;51.570;7.090;2023-10-13T07:37:35;0.40;;;0.30;;
4547;SDS011;2286;51.570;7.090;2023-10-13T07:40:03;0.50;;;0.50;;
4547;SDS011;2286;51.570;7.090;2023-10-13T07:42:47;0.40;;;0.30;;
4547;SDS011;2286;51.570;7.090;2023-10-13T07:45:15;0.40;;;0.30;;
4547;SDS011;2286;51.570;7.090;2023-10-13T07:47:58;0.40;;;0.30;;
4547;SDS011;2286;51.570;7.090;2023-10-13T07:50:26;0.40;;;0.40;;
4547;SDS011;2286;51.570;7.090;2023-10-13T07:52:53;3.80;;;3.60;;
4547;SDS011;2286;51.570;7.090;2023-10-13T07:55:30;0.87;;;0.87;;
4547;SDS011;2286;51.570;7.090;2023-10-13T07:57:59;0.40;;;0.30;;
4547;SDS011;2286;51.570;7.090;2023-10-13T08:00:34;0.40;;;0.30;;
4547;SDS011;2286;51.570;7.090;2023-10-13T08:03:19;0.40;;;0.30;;
4547;SDS011;2286;51.570;7.090;2023-10-13T08:06:00;0.40;;;0.30;;
4547;SDS011;2286;51.570;7.090;2023-10-13T08:08:32;2.60;;;2.47;;
4547;SDS011;2286;51.570;7.090;2023-10-13T08:11:04;0.40;;;0.30;;
4547;SDS011;2286;51.570;7.090;2023-10-13T08:13:49;0.90;;;0.90;;
4547;SDS011;2286;51.570;7.090;2023-10-13T08:16:22;0.57;;;0.57;;
4547;SDS011;2286;51.570;7.090;2023-10-13T08:18:55;0.40;;;0.30;;
4547;SDS011;2286;51.570;7.090;2023-10-13T08:21:22;0.40;;;0.40;;
4547;SDS011;2286;51.570;7.090;2023-10-13T08:23:49;0.40;;;0.40;;
4547;SDS011;2286;51.570;7.090;2023-10-13T08:26:31;0.50;;;0.40;;
4547;SDS011;2286;51.570;7.090;2023-10-13T08:29:15;0.40;;;0.30;;
4547;SDS011;2286;51.570;7.090;2023-10-13T08:32:12;0.73;;;0.73;;
4547;SDS011;2286;51.570;7.090;2023-10-13T08:35:01;0.40;;;0.30;;
4547;SDS011;2286;51.570;7.090;2023-10-13T08:37:59;0.40;;;0.30;;
4547;SDS011;2286;51.570;7.090;2023-10-13T08:40:29;0.97;;;0.97;;
4547;SDS011;2286;51.570;7.090;2023-10-13T08:43:14;0.63;;;0.60;;
4547;SDS011;2286;51.570;7.090;2023-10-13T08:45:42;0.40;;;0.30;;
4547;SDS011;2286;51.570;7.090;2023-10-13T08:48:19;0.40;;;0.30;;
4547;SDS011;2286;51.570;7.090;2023-10-13T08:50:56;0.40;;;0.30;;
4547;SDS011;2286;51.570;7.090;2023-10-13T08:53:31;0.60;;;0.60;;
4547;SDS011;2286;51.570;7.090;2023-10-13T08:56:00;0.40;;;0.33;;
4547;SDS011;2286;51.570;7.090;2023-10-13T08:58:30;0.40;;;0.30;;
4547;SDS011;2286;51.570;7.090;2023-10-13T09:01:17;2.07;;;0.70;;
4547;SDS011;2286;51.570;7.090;2023-10-13T09:04:00;10.40;;;6.30;;
4547;SDS011;2286;51.570;7.090;2023-10-13T09:06:41;12.50;;;6.87;;
4547;SDS011;2286;51.570;7.090;2023-10-13T09:09:12;8.90;;;6.00;;
4547;SDS011;2286;51.570;7.090;2023-10-13T09:11:51;14.70;;;6.00;;
4547;SDS011;2286;51.570;7.090;2023-10-13T09:14:30;10.83;;;5.77;;
4547;SDS011;2286;51.570;7.090;2023-10-13T09:17:06;8.50;;;5.33;;
4547;SDS011;2286;51.570;7.090;2023-10-13T09:19:45;11.57;;;6.20;;
4547;SDS011;2286;51.570;7.090;2023-10-13T09:22:19;10.03;;;5.70;;
4547;SDS011;2286;51.570;7.090;2023-10-13T09:24:51;13.57;;;5.57;;
4547;SDS011;2286;51.570;7.090;2023-10-13T09:27:23;11.00;;;4.90;;
4547;SDS011;2286;51.570;7.090;2023-10-13T09:29:55;11.80;;;5.30;;
4547;SDS011;2286;51.570;7.090;2023-10-13T09:32:23;8.97;;;5.07;;
4547;SDS011;2286;51.570;7.090;2023-10-13T09:34:50;8.70;;;4.90;;
4547;SDS011;2286;51.570;7.090;2023-10-13T09:37:18;8.63;;;4.93;;
4547;SDS011;2286;51.570;7.090;2023-10-13T09:39:46;11.63;;;5.80;;
4547;SDS011;2286;51.570;7.090;2023-10-13T09:42:18;6.50;;;4.43;;
4547;SDS011;2286;51.570;7.090;2023-10-13T09:44:44;12.17;;;5.20;;
4547;SDS011;2286;51.570;7.090;2023-10-13T09:47:19;8.97;;;5.67;;
4547;SDS011;2286;51.570;7.090;2023-10-13T09:49:57;14.13;;;5.50;;
4547;SDS011;2286;51.570;7.090;2023-10-13T09:52:30;11.30;;;5.93;;
4547;SDS011;2286;51.570;7.090;2023-10-13T09:55:07;9.20;;;5.17;;
4547;SDS011;2286;51.570;7.090;2023-10-13T09:57:45;10.70;;;5.60;;
4547;SDS011;2286;51.570;7.090;2023-10-13T10:00:22;9.43;;;5.00;;
4547;SDS011;2286;51.570;7.090;2023-10-13T10:03:09;9.13;;;4.83;;
4547;SDS011;2286;51.570;7.090;2023-10-13T10:05:58;10.97;;;5.50;;
4547;SDS011;2286;51.570;7.090;2023-10-13T10:08:31;8.33;;;4.10;;
4547;SDS011;2286;51.570;7.090;2023-10-13T10:11:07;11.23;;;5.27;;
4547;SDS011;2286;51.570;7.090;2023-10-13T10:13:47;9.70;;;4.83;;
4547;SDS011;2286;51.570;7.090;2023-10-13T10:16:24;8.57;;;5.37;;
4547;SDS011;2286;51.570;7.090;2023-10-13T10:19:01;13.03;;;4.73;;
4547;SDS011;2286;51.570;7.090;2023-10-13T10:21:34;10.00;;;5.47;;
4547;SDS011;2286;51.570;7.090;2023-10-13T10:24:01;10.33;;;6.50;;
4547;SDS011;2286;51.570;7.090;2023-10-13T10:26:33;11.80;;;6.00;;
4547;SDS011;2286;51.570;7.090;2023-10-13T10:29:10;11.63;;;5.70;;
4547;SDS011;2286;51.570;7.090;2023-10-13T10:31:39;8.80;;;4.90;;
4547;SDS011;2286;51.570;7.090;2023-10-13T10:34:11;10.20;;;6.60;;
4547;SDS011;2286;51.570;7.090;2023-10-13T10:36:41;8.00;;;5.33;;
4547;SDS011;2286;51.570;7.090;2023-10-13T10:39:11;10.70;;;5.90;;
4547;SDS011;2286;51.570;7.090;2023-10-13T10:41:38;11.70;;;5.97;;
4547;SDS011;2286;51.570;7.090;2023-10-13T10:44:10;9.67;;;5.83;;
4547;SDS011;2286;51.570;7.090;2023-10-13T10:46:51;7.93;;;5.30;;
4547;SDS011;2286;51.570;7.090;2023-10-13T10:49:23;9.80;;;5.77;;
4547;SDS011;2286;51.570;7.090;2023-10-13T10:51:58;9.57;;;6.40;;
4547;SDS011;2286;51.570;7.090;2023-10-13T10:54:29;11.47;;;6.10;;
4547;SDS011;2286;51.570;7.090;2023-10-13T10:56:57;7.67;;;5.97;;
4547;SDS011;2286;51.570;7.090;2023-10-13T10:59:36;16.50;;;5.83;;
4547;SDS011;2286;51.570;7.090;2023-10-13T11:02:04;13.10;;;6.17;;
4547;SDS011;2286;51.570;7.090;2023-10-13T11:04:32;14.87;;;7.20;;
4547;SDS011;2286;51.570;7.090;2023-10-13T11:07:01;7.90;;;6.07;;
4547;SDS011;2286;51.570;7.090;2023-10-13T11:09:32;12.37;;;6.90;;
4547;SDS011;2286;51.570;7.090;2023-10-13T11:12:10;9.73;;;6.57;;
4547;SDS011;2286;51.570;7.090;2023-10-13T11:14:41;11.93;;;6.43;;
4547;SDS011;2286;51.570;7.090;2023-10-13T11:17:18;10.80;;;6.50;;
4547;SDS011;2286;51.570;7.090;2023-10-13T11:19:49;14.80;;;6.40;;
4547;SDS011;2286;51.570;7.090;2023-10-13T11:22:19;9.27;;;7.00;;
4547;SDS011;2286;51.570;7.090;2023-10-13T11:24:57;14.13;;;6.30;;
4547;SDS011;2286;51.570;7.090;2023-10-13T11:27:28;9.30;;;6.97;;
4547;SDS011;2286;51.570;7.090;2023-10-13T11:30:09;20.37;;;7.90;;
4547;SDS011;2286;51.570;7.090;2023-10-13T11:32:39;12.17;;;6.93;;
4547;SDS011;2286;51.570;7.090;2023-10-13T11:35:07;11.00;;;5.90;;
4547;SDS011;2286;51.570;7.090;2023-10-13T11:37:47;8.07;;;6.20;;
4547;SDS011;2286;51.570;7.090;2023-10-13T11:40:21;9.60;;;6.43;;
4547;SDS011;2286;51.570;7.090;2023-10-13T11:43:08;13.07;;;7.20;;
4547;SDS011;2286;51.570;7.090;2023-10-13T11:45:39;7.83;;;5.93;;
4547;SDS011;2286;51.570;7.090;2023-10-13T11:48:19;14.10;;;6.77;;
4547;SDS011;2286;51.570;7.090;2023-10-13T11:50:59;12.40;;;6.70;;
4547;SDS011;2286;51.570;7.090;2023-10-13T11:53:33;8.87;;;6.00;;
4547;SDS011;2286;51.570;7.090;2023-10-13T11:56:00;16.57;;;5.80;;
4547;SDS011;2286;51.570;7.090;2023-10-13T11:58:30;11.33;;;6.90;;
4547;SDS011;2286;51.570;7.090;2023-10-13T12:00:59;9.10;;;6.30;;
4547;SDS011;2286;51.570;7.090;2023-10-13T12:03:45;11.38;;;6.18;;
4547;SDS011;2286;51.570;7.090;2023-10-13T12:06:31;10.05;;;6.55;;
4547;SDS011;2286;51.570;7.090;2023-10-13T12:09:13;19.70;;;6.80;;
4547;SDS011;2286;51.570;7.090;2023-10-13T12:12:05;8.33;;;5.67;;
4547;SDS011;2286;51.570;7.090;2023-10-13T12:14:34;9.33;;;6.33;;
4547;SDS011;2286;51.570;7.090;2023-10-13T12:17:03;12.73;;;6.97;;
4547;SDS011;2286;51.570;7.090;2023-10-13T12:19:35;17.87;;;6.77;;
4547;SDS011;2286;51.570;7.090;2023-10-13T12:22:04;10.57;;;6.10;;
4547;SDS011;2286;51.570;7.090;2023-10-13T12:24:43;12.37;;;6.10;;
4547;SDS011;2286;51.570;7.090;2023-10-13T12:27:18;12.60;;;7.00;;
4547;SDS011;2286;51.570;7.090;2023-10-13T12:29:45;15.13;;;6.00;;
4547;SDS011;2286;51.570;7.090;2023-10-13T12:32:12;8.93;;;4.93;;
4547;SDS011;2286;51.570;7.090;2023-10-13T12:34:46;12.80;;;5.13;;
4547;SDS011;2286;51.570;7.090;2023-10-13T12:37:25;9.93;;;6.77;;
4547;SDS011;2286;51.570;7.090;2023-10-13T12:40:17;15.30;;;5.70;;
4547;SDS011;2286;51.570;7.090;2023-10-13T12:43:04;15.23;;;5.90;;
4547;SDS011;2286;51.570;7.090;2023-10-13T12:45:50;17.10;;;6.47;;
4547;SDS011;2286;51.570;7.090;2023-10-13T12:48:36;15.93;;;5.80;;
4547;SDS011;2286;51.570;7.090;2023-10-13T12:51:29;13.80;;;6.37;;
4547;SDS011;2286;51.570;7.090;2023-10-13T12:54:15;15.80;;;6.90;;
4547;SDS011;2286;51.570;7.090;2023-10-13T12:56:49;17.37;;;6.30;;
4547;SDS011;2286;51.570;7.090;2023-10-13T12:59:22;14.40;;;5.37;;
4547;SDS011;2286;51.570;7.090;2023-10-13T13:01:52;15.67;;;6.63;;
4547;SDS011;2286;51.570;7.090;2023-10-13T13:04:19;15.00;;;6.17;;
4547;SDS011;2286;51.570;7.090;2023-10-13T13:06:46;20.93;;;6.50;;
4547;SDS011;2286;51.570;7.090;2023-10-13T13:09:14;18.20;;;7.28;;
4547;SDS011;2286;51.570;7.090;2023-10-13T13:11:41;17.00;;;5.90;;
4547;SDS011;2286;51.570;7.090;2023-10-13T13:14:09;15.23;;;6.87;;
4547;SDS011;2286;51.570;7.090;2023-10-13T13:16:36;16.50;;;5.80;;
4547;SDS011;2286;51.570;7.090;2023-10-13T13:19:04;14.10;;;6.33;;
4547;SDS011;2286;51.570;7.090;2023-10-13T13:21:36;10.90;;;5.50;;
4547;SDS011;2286;51.570;7.090;2023-10-13T13:24:03;12.37;;;6.57;;
4547;SDS011;2286;51.570;7.090;2023-10-13T13:26:36;16.23;;;6.67;;
4547;SDS011;2286;51.570;7.090;2023-10-13T13:29:06;16.23;;;6.17;;
4547;SDS011;2286;51.570;7.090;2023-10-13T13:31:36;13.50;;;6.37;;
4547;SDS011;2286;51.570;7.090;2023-10-13T13:34:08;17.20;;;7.17;;
4547;SDS011;2286;51.570;7.090;2023-10-13T13:36:37;11.33;;;6.17;;
4547;SDS011;2286;51.570;7.090;2023-10-13T13:39:09;16.40;;;6.23;;
4547;SDS011;2286;51.570;7.090;2023-10-13T13:41:36;15.20;;;6.07;;
4547;SDS011;2286;51.570;7.090;2023-10-13T13:44:03;15.50;;;6.50;;
4547;SDS011;2286;51.570;7.090;2023-10-13T13:46:40;13.67;;;6.47;;
4547;SDS011;2286;51.570;7.090;2023-10-13T13:49:08;14.90;;;6.00;;
4547;SDS011;2286;51.570;7.090;2023-10-13T13:51:43;21.40;;;6.43;;
4547;SDS011;2286;51.570;7.090;2023-10-13T13:54:17;16.53;;;6.03;;
4547;SDS011;2286;51.570;7.090;2023-10-13T13:56:44;19.97;;;6.40;;
4547;SDS011;2286;51.570;7.090;2023-10-13T13:59:12;15.20;;;5.87;;
4547;SDS011;2286;51.570;7.090;2023-10-13T14:01:46;15.50;;;6.67;;
4547;SDS011;2286;51.570;7.090;2023-10-13T14:04:13;12.00;;;6.40;;
4547;SDS011;2286;51.570;7.090;2023-10-13T14:06:43;13.00;;;5.87;;
4547;SDS011;2286;51.570;7.090;2023-10-13T14:09:11;24.17;;;7.40;;
4547;SDS011;2286;51.570;7.090;2023-10-13T14:11:42;14.27;;;5.93;;
4547;SDS011;2286;51.570;7.090;2023-10-13T14:14:37;17.73;;;8.10;;
4547;SDS011;2286;51.570;7.090;2023-10-13T14:17:14;16.20;;;7.57;;
4547;SDS011;2286;51.570;7.090;2023-10-13T14:19:41;13.17;;;5.77;;
4547;SDS011;2286;51.570;7.090;2023-10-13T14:22:10;16.30;;;6.00;;
4547;SDS011;2286;51.570;7.090;2023-10-13T14:24:38;11.20;;;5.77;;
4547;SDS011;2286;51.570;7.090;2023-10-13T14:27:12;10.13;;;5.97;;
4547;SDS011;2286;51.570;7.090;2023-10-13T14:29:42;13.23;;;5.93;;
4547;SDS011;2286;51.570;7.090;2023-10-13T14:32:10;22.43;;;6.37;;
4547;SDS011;2286;51.570;7.090;2023-10-13T14:34:40;16.17;;;5.73;;
4547;SDS011;2286;51.570;7.090;2023-10-13T14:37:08;16.20;;;5.80;;
4547;SDS011;2286;51.570;7.090;2023-10-13T14:39:37;12.10;;;6.07;;
4547;SDS011;2286;51.570;7.090;2023-10-13T14:42:05;12.17;;;5.23;;
4547;SDS011;2286;51.570;7.090;2023-10-13T14:44:32;14.80;;;5.80;;
4547;SDS011;2286;51.570;7.090;2023-10-13T14:46:59;12.17;;;5.53;;
4547;SDS011;2286;51.570;7.090;2023-10-13T14:49:26;12.93;;;5.33;;
4547;SDS011;2286;51.570;7.090;2023-10-13T14:51:55;14.00;;;6.17;;
4547;SDS011;2286;51.570;7.090;2023-10-13T14:54:24;13.00;;;4.63;;
4547;SDS011;2286;51.570;7.090;2023-10-13T14:56:59;16.30;;;5.50;;
4547;SDS011;2286;51.570;7.090;2023-10-13T14:59:27;14.77;;;5.07;;
4547;SDS011;2286;51.570;7.090;2023-10-13T15:01:58;10.73;;;4.97;;
4547;SDS011;2286;51.570;7.090;2023-10-13T15:04:27;18.60;;;5.57;;
4547;SDS011;2286;51.570;7.090;2023-10-13T15:06:59;20.03;;;5.33;;
4547;SDS011;2286;51.570;7.090;2023-10-13T15:09:28;19.47;;;5.70;;
4547;SDS011;2286;51.570;7.090;2023-10-13T15:11:55;13.73;;;5.43;;
4547;SDS011;2286;51.570;7.090;2023-10-13T15:14:22;13.77;;;5.30;;
4547;SDS011;2286;51.570;7.090;2023-10-13T15:16:49;16.47;;;5.90;;
4547;SDS011;2286;51.570;7.090;2023-10-13T15:19:18;19.93;;;6.10;;
4547;SDS011;2286;51.570;7.090;2023-10-13T15:21:45;16.73;;;6.00;;
4547;SDS011;2286;51.570;7.090;2023-10-13T15:24:17;15.07;;;6.28;;
4547;SDS011;2286;51.570;7.090;2023-10-13T15:26:46;15.88;;;6.05;;
4547;SDS011;2286;51.570;7.090;2023-10-13T15:29:14;16.02;;;5.40;;
4547;SDS011;2286;51.570;7.090;2023-10-13T15:31:43;15.63;;;5.60;;
4547;SDS011;2286;51.570;7.090;2023-10-13T15:34:29;13.77;;;5.43;;
4547;SDS011;2286;51.570;7.090;2023-10-13T15:36:58;9.57;;;4.50;;
4547;SDS011;2286;51.570;7.090;2023-10-13T15:39:27;8.57;;;4.47;;
4547;SDS011;2286;51.570;7.090;2023-10-13T15:41:56;10.13;;;5.17;;
4547;SDS011;2286;51.570;7.090;2023-10-13T15:44:24;16.97;;;5.30;;
4547;SDS011;2286;51.570;7.090;2023-10-13T15:46:55;11.57;;;5.40;;
4547;SDS011;2286;51.570;7.090;2023-10-13T15:49:23;16.90;;;5.50;;
4547;SDS011;2286;51.570;7.090;2023-10-13T15:51:52;13.00;;;5.10;;